Time;durP1;ratioP1;P1;durP2;ratioP2;P2;SDS_P1;SDS_P2;PMS_P1;PMS_P2;Temp;Humidity;BMP_temperature;BMP_pressure;BME280_temperature;BME280_humidity;BME280_pressure;Samples;Min_cycle;Max_cycle;Signal;HPM_P1;HPM_P2
2023/08/31 00:01:43;;;;;;;;;;;;;;;24.82;44.09;100660.34;5005111;28;20313;-66
2023/08/31 00:04:14;;;;;;;;;;;;;;;24.79;43.89;100650.94;5056186;28;20040;-65
2023/08/31 00:06:40;;;;;;;;;;;;;;;24.80;44.16;100651.75;5006939;28;21182;-64
2023/08/31 00:09:09;;;;;;;;;;;;;;;24.81;43.89;100645.38;5063389;28;19974;-66
2023/08/31 00:11:35;;;;;;;;;;;;;;;24.80;43.96;100643.75;5003240;28;20316;-70
2023/08/31 00:14:00;;;;;;;;;;;;;;;24.83;43.86;100641.47;5059240;28;20441;-69
2023/08/31 00:16:29;;;;;;;;;;;;;;;24.80;43.94;100644.56;5028411;28;20240;-67
2023/08/31 00:18:56;;;;;;;;;;;;;;;24.80;43.82;100649.91;5039894;28;19949;-66
2023/08/31 00:21:22;;;;;;;;;;;;;;;24.78;44.00;100641.31;5005334;28;20630;-67
2023/08/31 00:23:48;;;;;;;;;;;;;;;24.80;43.90;100641.91;5079766;28;20259;-66
2023/08/31 00:26:15;;;;;;;;;;;;;;;24.63;44.06;100617.66;5055951;28;20395;-67
2023/08/31 00:28:44;;;;;;;;;;;;;;;24.81;43.77;100634.75;5020118;28;19953;-67
2023/08/31 00:31:15;;;;;;;;;;;;;;;24.59;43.85;100602.31;5036427;28;19940;-66
2023/08/31 00:33:41;;;;;;;;;;;;;;;24.77;44.07;100628.19;5090706;27;19949;-66
2023/08/31 00:36:07;;;;;;;;;;;;;;;24.75;43.89;100622.28;5093594;27;20064;-65
2023/08/31 00:38:33;;;;;;;;;;;;;;;24.77;43.82;100621.00;5013950;28;19983;-72
2023/08/31 00:40:59;;;;;;;;;;;;;;;24.77;43.99;100622.88;5061267;28;20668;-72
2023/08/31 00:43:25;;;;;;;;;;;;;;;24.76;43.85;100631.88;5009451;28;19979;-71
2023/08/31 00:45:54;;;;;;;;;;;;;;;24.76;44.00;100632.69;5061762;28;20454;-71
2023/08/31 00:48:19;;;;;;;;;;;;;;;24.74;43.90;100621.44;5004851;28;20042;-72
2023/08/31 00:50:46;;;;;;;;;;;;;;;24.75;43.90;100631.06;5059615;28;19942;-72
2023/08/31 00:53:11;;;;;;;;;;;;;;;24.75;43.76;100627.59;5004615;28;19992;-74
2023/08/31 00:55:38;;;;;;;;;;;;;;;24.73;43.95;100635.81;5057707;28;19937;-72
2023/08/31 00:58:05;;;;;;;;;;;;;;;24.76;43.88;100638.03;5008919;28;20016;-64
2023/08/31 01:00:50;;;;;;;;;;;;;;;24.71;43.86;100635.22;5057193;28;19941;-65
2023/08/31 01:03:37;;;;;;;;;;;;;;;24.57;43.66;100599.88;4983641;28;19983;-65
2023/08/31 01:06:12;;;;;;;;;;;;;;;24.74;43.78;100625.97;5047482;28;19948;-65
2023/08/31 01:08:40;;;;;;;;;;;;;;;24.73;43.78;100632.31;5006115;28;20897;-65
2023/08/31 01:11:05;;;;;;;;;;;;;;;24.72;43.95;100628.84;5056359;28;19955;-65
2023/08/31 01:13:32;;;;;;;;;;;;;;;24.71;43.83;100628.03;5024566;28;20426;-72
2023/08/31 01:16:00;;;;;;;;;;;;;;;24.74;43.82;100628.63;5061636;28;19997;-72
2023/08/31 01:18:26;;;;;;;;;;;;;;;24.73;43.86;100627.00;5019560;28;22081;-72
2023/08/31 01:21:11;;;;;;;;;;;;;;;24.73;43.91;100627.00;5060331;28;20001;-70
2023/08/31 01:23:56;;;;;;;;;;;;;;;24.73;43.86;100621.69;5005944;28;21002;-66
2023/08/31 01:26:22;;;;;;;;;;;;;;;24.73;43.79;100627.00;5057370;28;19994;-66
2023/08/31 01:28:50;;;;;;;;;;;;;;;24.72;43.87;100631.50;5009764;28;20449;-66
2023/08/31 01:31:16;;;;;;;;;;;;;;;24.71;43.71;100624.56;5057208;28;19937;-66
2023/08/31 01:33:41;;;;;;;;;;;;;;;24.70;43.85;100622.94;5008401;28;20389;-66
2023/08/31 01:36:13;;;;;;;;;;;;;;;24.73;43.80;100621.69;5064493;28;20038;-66
2023/08/31 01:38:43;;;;;;;;;;;;;;;24.69;43.70;100622.13;5002416;28;21362;-69
2023/08/31 01:41:13;;;;;;;;;;;;;;;24.69;43.82;100622.13;5061318;28;19965;-69
2023/08/31 01:43:40;;;;;;;;;;;;;;;24.68;43.88;100622.34;5001686;28;20456;-72
2023/08/31 01:46:06;;;;;;;;;;;;;;;24.66;43.81;100619.06;5078555;28;19992;-69
2023/08/31 01:48:42;;;;;;;;;;;;;;;24.67;43.84;100615.38;5027276;28;19971;-65
2023/08/31 01:51:09;;;;;;;;;;;;;;;24.66;43.97;100619.88;5065541;28;19992;-66
2023/08/31 01:53:34;;;;;;;;;;;;;;;24.66;43.74;100619.88;5002335;28;20591;-66
2023/08/31 01:56:00;;;;;;;;;;;;;;;24.66;43.71;100619.88;5059501;28;20008;-68
2023/08/31 01:58:35;;;;;;;;;;;;;;;24.37;43.88;100576.06;5032723;28;20430;-66
2023/08/31 02:01:01;;;;;;;;;;;;;;;24.65;43.93;100625.44;5044298;28;20021;-66
2023/08/31 02:03:31;;;;;;;;;;;;;;;24.66;43.87;100632.38;5008607;28;20030;-66
2023/08/31 02:05:57;;;;;;;;;;;;;;;24.65;43.76;100622.78;5037253;28;19932;-65
2023/08/31 02:08:23;;;;;;;;;;;;;;;24.67;43.75;100626.84;5013327;28;20340;-72
2023/08/31 02:10:50;;;;;;;;;;;;;;;24.67;43.58;100628.69;5066481;28;19932;-72
2023/08/31 02:13:21;;;;;;;;;;;;;;;24.62;43.86;100620.53;5046996;28;19952;-65
2023/08/31 02:15:50;;;;;;;;;;;;;;;24.63;43.69;100614.19;5060934;28;21382;-65
2023/08/31 02:18:16;;;;;;;;;;;;;;;24.61;43.69;100616.25;5009488;28;21691;-64
2023/08/31 02:20:41;;;;;;;;;;;;;;;24.65;43.69;100612.94;5063315;28;19949;-65
2023/08/31 02:23:09;;;;;;;;;;;;;;;24.64;43.57;100613.16;5011085;28;19958;-72
2023/08/31 02:25:34;;;;;;;;;;;;;;;24.63;43.65;100607.00;5061322;28;20715;-72
2023/08/31 02:28:00;;;;;;;;;;;;;;;24.62;43.64;100610.72;5007916;28;19964;-72
2023/08/31 02:30:25;;;;;;;;;;;;;;;24.62;43.73;100602.72;5058788;28;19942;-72
2023/08/31 02:32:50;;;;;;;;;;;;;;;24.62;43.64;100605.38;5010997;28;19950;-66
2023/08/31 02:35:16;;;;;;;;;;;;;;;24.63;43.60;100604.34;5058373;28;20056;-66
2023/08/31 02:37:41;;;;;;;;;;;;;;;24.62;43.50;100604.56;5007045;28;20616;-72
2023/08/31 02:40:08;;;;;;;;;;;;;;;24.61;43.49;100595.78;5060261;28;19941;-72
2023/08/31 02:42:35;;;;;;;;;;;;;;;24.60;43.72;100604.78;5007616;28;19998;-65
2023/08/31 02:45:00;;;;;;;;;;;;;;;24.57;43.75;100597.22;5061956;28;19973;-66
2023/08/31 02:47:27;;;;;;;;;;;;;;;24.59;43.62;100600.47;5006805;28;20381;-65
2023/08/31 02:49:53;;;;;;;;;;;;;;;24.60;43.69;100599.47;5063003;28;19995;-66
2023/08/31 02:52:19;;;;;;;;;;;;;;;24.58;43.81;100601.50;5014821;28;20146;-69
2023/08/31 02:54:44;;;;;;;;;;;;;;;24.56;43.57;100603.56;5052592;28;19941;-71
2023/08/31 02:57:09;;;;;;;;;;;;;;;24.53;43.75;100596.03;5003851;28;20329;-67
2023/08/31 02:59:35;;;;;;;;;;;;;;;24.57;43.75;100605.19;5060323;28;19943;-66
2023/08/31 03:02:02;;;;;;;;;;;;;;;24.55;43.61;100607.25;5011707;28;20308;-66
2023/08/31 03:04:27;;;;;;;;;;;;;;;24.53;43.83;100604.00;5061653;28;20448;-66
2023/08/31 03:06:52;;;;;;;;;;;;;;;24.52;43.76;100598.91;5015657;28;20559;-67
2023/08/31 03:09:19;;;;;;;;;;;;;;;24.53;43.75;100605.84;5068744;28;20035;-65
2023/08/31 03:11:46;;;;;;;;;;;;;;;24.36;43.63;100574.44;5012883;28;22570;-72
2023/08/31 03:14:12;;;;;;;;;;;;;;;24.57;43.57;100609.72;5073488;28;19941;-72
2023/08/31 03:16:45;;;;;;;;;;;;;;;24.55;43.58;100603.78;5059527;28;19960;-73
2023/08/31 03:19:11;;;;;;;;;;;;;;;24.54;43.66;100605.63;5038233;28;20432;-69
2023/08/31 03:21:36;;;;;;;;;;;;;;;24.54;43.74;100599.50;5051065;28;19941;-72
2023/08/31 03:24:02;;;;;;;;;;;;;;;24.52;43.50;100602.38;5058637;28;19967;-72
2023/08/31 03:26:27;;;;;;;;;;;;;;;24.52;43.48;100594.41;5006421;28;19954;-66
2023/08/31 03:28:53;;;;;;;;;;;;;;;24.51;43.78;100599.94;5066981;28;20010;-66
2023/08/31 03:31:19;;;;;;;;;;;;;;;24.51;43.61;100599.94;5004297;28;20422;-71
2023/08/31 03:33:45;;;;;;;;;;;;;;;24.51;43.66;100602.59;5055517;28;20293;-69
2023/08/31 03:36:10;;;;;;;;;;;;;;;24.50;43.71;100606.28;5006564;28;20664;-69
2023/08/31 03:38:37;;;;;;;;;;;;;;;24.52;43.64;100606.88;5060565;28;19945;-69
2023/08/31 03:41:03;;;;;;;;;;;;;;;24.52;43.50;100605.03;5014652;28;21523;-72
2023/08/31 03:43:28;;;;;;;;;;;;;;;24.52;43.61;100604.22;5063659;28;19942;-72
2023/08/31 03:45:59;;;;;;;;;;;;;;;24.33;43.60;100577.53;5034446;28;20465;-72
2023/08/31 03:48:28;;;;;;;;;;;;;;;24.49;43.79;100597.50;5063084;28;20015;-70
2023/08/31 03:50:54;;;;;;;;;;;;;;;24.47;43.58;100599.56;5007597;28;20435;-66
2023/08/31 03:53:21;;;;;;;;;;;;;;;24.49;43.59;100596.69;5054126;28;19937;-65
2023/08/31 03:55:48;;;;;;;;;;;;;;;24.47;43.86;100598.75;5026046;28;19979;-65
2023/08/31 03:58:14;;;;;;;;;;;;;;;24.47;43.55;100602.22;4997431;28;20700;-65
2023/08/31 04:00:48;;;;;;;;;;;;;;;24.30;43.73;100579.81;5029471;28;20017;-72
2023/08/31 04:03:14;;;;;;;;;;;;;;;24.47;43.59;100607.53;5064294;28;19930;-66
2023/08/31 04:05:42;;;;;;;;;;;;;;;24.46;43.81;100605.91;5043346;28;19988;-67
2023/08/31 04:08:11;;;;;;;;;;;;;;;24.48;43.52;100608.34;5044275;28;19991;-72
2023/08/31 04:10:37;;;;;;;;;;;;;;;24.44;43.84;100609.81;5047323;28;20030;-73
2023/08/31 04:13:06;;;;;;;;;;;;;;;24.45;43.66;100608.78;5013658;28;20667;-72
2023/08/31 04:15:32;;;;;;;;;;;;;;;24.43;43.69;100606.34;5060556;28;19940;-72
2023/08/31 04:17:57;;;;;;;;;;;;;;;24.46;43.73;100616.56;4998773;28;19963;-74
2023/08/31 04:20:22;;;;;;;;;;;;;;;24.47;43.58;100612.88;5056331;28;20066;-72
2023/08/31 04:22:48;;;;;;;;;;;;;;;24.46;43.59;100611.25;5007385;28;20437;-69
2023/08/31 04:25:13;;;;;;;;;;;;;;;24.46;43.65;100610.41;5057990;28;20069;-68
2023/08/31 04:27:39;;;;;;;;;;;;;;;24.46;43.56;100615.75;5007190;28;20046;-66
2023/08/31 04:30:06;;;;;;;;;;;;;;;24.47;43.37;100614.72;5062052;28;20029;-66
2023/08/31 04:32:32;;;;;;;;;;;;;;;24.43;43.48;100613.53;5047676;28;20461;-66
2023/08/31 04:34:58;;;;;;;;;;;;;;;24.43;43.56;100616.19;5055564;28;20040;-68
2023/08/31 04:37:23;;;;;;;;;;;;;;;24.40;43.47;100615.56;5006650;28;20421;-69
2023/08/31 04:39:48;;;;;;;;;;;;;;;24.40;43.47;100615.56;5056586;28;20036;-71
2023/08/31 04:42:16;;;;;;;;;;;;;;;24.41;43.51;100603.88;5010606;28;20443;-67
2023/08/31 04:44:42;;;;;;;;;;;;;;;24.42;43.51;100615.38;5059519;28;20001;-66
2023/08/31 04:47:07;;;;;;;;;;;;;;;24.40;43.75;100615.56;5011548;28;20122;-65
2023/08/31 04:49:32;;;;;;;;;;;;;;;24.41;43.56;100619.03;5063506;28;21181;-65
2023/08/31 04:51:58;;;;;;;;;;;;;;;24.39;43.40;100621.91;5004105;28;19951;-65
2023/08/31 04:54:24;;;;;;;;;;;;;;;24.40;43.65;100628.84;5065334;28;19937;-66
2023/08/31 04:56:49;;;;;;;;;;;;;;;24.41;43.77;100630.50;5011430;28;19956;-72
2023/08/31 04:59:14;;;;;;;;;;;;;;;24.41;43.49;100627.81;5065224;28;19946;-72
2023/08/31 05:01:40;;;;;;;;;;;;;;;24.39;43.60;100637.06;5010603;28;20502;-65
2023/08/31 05:04:05;;;;;;;;;;;;;;;24.40;43.55;100636.03;5054912;28;19967;-65
2023/08/31 05:06:31;;;;;;;;;;;;;;;24.37;43.68;100642.59;5011928;28;19965;-66
2023/08/31 05:08:56;;;;;;;;;;;;;;;24.42;43.46;100639.31;5060672;28;20730;-66
2023/08/31 05:11:22;;;;;;;;;;;;;;;24.41;43.55;100640.31;5006443;28;19948;-69
2023/08/31 05:13:48;;;;;;;;;;;;;;;24.40;43.50;100638.69;5057785;28;20019;-69
2023/08/31 05:16:13;;;;;;;;;;;;;;;24.39;43.68;100642.38;5011471;28;19967;-70
2023/08/31 05:18:40;;;;;;;;;;;;;;;24.40;43.38;100642.16;5064203;28;19951;-69
2023/08/31 05:21:05;;;;;;;;;;;;;;;24.38;43.49;100648.75;5002331;28;19960;-66
2023/08/31 05:23:31;;;;;;;;;;;;;;;24.38;43.61;100654.88;5061117;28;19969;-66
2023/08/31 05:25:56;;;;;;;;;;;;;;;24.39;43.51;100656.50;5001846;28;20360;-72
2023/08/31 05:28:22;;;;;;;;;;;;;;;24.37;43.48;100652.44;5055322;28;19941;-72
2023/08/31 05:30:51;;;;;;;;;;;;;;;24.38;43.41;100664.72;4997675;28;20362;-66
2023/08/31 05:33:19;;;;;;;;;;;;;;;24.40;43.50;100662.66;5055781;28;20048;-66
2023/08/31 05:35:45;;;;;;;;;;;;;;;24.40;43.48;100673.28;5003044;28;20453;-73
2023/08/31 05:38:11;;;;;;;;;;;;;;;24.38;43.51;100675.34;5039817;28;20397;-65
2023/08/31 05:40:36;;;;;;;;;;;;;;;24.37;43.44;100674.53;5059521;28;20008;-65
2023/08/31 05:43:03;;;;;;;;;;;;;;;24.35;43.50;100679.25;5010120;28;19955;-65
2023/08/31 05:45:31;;;;;;;;;;;;;;;24.36;43.47;100678.22;5059162;28;19958;-65
2023/08/31 05:47:57;;;;;;;;;;;;;;;24.37;43.49;100673.72;5002626;28;20021;-66
2023/08/31 05:50:22;;;;;;;;;;;;;;;24.37;43.46;100690.50;5056021;28;20009;-66
2023/08/31 05:52:48;;;;;;;;;;;;;;;24.35;43.53;100684.59;4998330;28;19951;-66
2023/08/31 05:55:13;;;;;;;;;;;;;;;24.35;43.56;100679.25;5058155;28;19943;-65
2023/08/31 05:57:39;;;;;;;;;;;;;;;24.35;43.58;100686.44;5011962;28;20015;-72
2023/08/31 06:00:07;;;;;;;;;;;;;;;24.33;43.72;100694.63;5054883;28;20625;-72
2023/08/31 06:02:38;;;;;;;;;;;;;;;24.36;43.57;100696.03;5007041;28;20048;-65
2023/08/31 06:05:04;;;;;;;;;;;;;;;24.37;43.51;100693.16;5055205;28;20022;-65
2023/08/31 06:07:29;;;;;;;;;;;;;;;24.36;43.53;100696.03;5010957;28;20585;-70
2023/08/31 06:09:55;;;;;;;;;;;;;;;24.36;43.40;100704.84;5052277;28;19943;-70
2023/08/31 06:12:21;;;;;;;;;;;;;;;24.38;43.35;100710.75;5009249;28;19953;-72
2023/08/31 06:14:46;;;;;;;;;;;;;;;24.37;43.37;100703.81;5057835;28;20318;-73
2023/08/31 06:17:12;;;;;;;;;;;;;;;24.34;43.57;100714.88;5006649;28;19955;-65
2023/08/31 06:19:41;;;;;;;;;;;;;;;24.36;43.49;100715.50;5056802;28;20286;-66
2023/08/31 06:22:07;;;;;;;;;;;;;;;24.38;43.41;100726.72;5005580;28;19979;-65
2023/08/31 06:24:33;;;;;;;;;;;;;;;24.36;43.37;100717.34;5061081;28;19995;-65
2023/08/31 06:26:59;;;;;;;;;;;;;;;24.38;43.36;100723.25;5008659;28;19976;-67
2023/08/31 06:29:24;;;;;;;;;;;;;;;24.39;43.39;100723.03;5055384;28;19934;-65
2023/08/31 06:31:50;;;;;;;;;;;;;;;24.39;43.42;100720.38;5009381;28;19994;-70
2023/08/31 06:34:15;;;;;;;;;;;;;;;24.38;43.28;100729.41;5057995;28;19943;-69
2023/08/31 06:36:41;;;;;;;;;;;;;;;24.36;43.43;100730.63;5003905;28;21363;-65
2023/08/31 06:39:06;;;;;;;;;;;;;;;24.37;43.43;100733.09;5041375;28;19993;-66
2023/08/31 06:41:32;;;;;;;;;;;;;;;24.39;43.60;100741.66;5006273;28;20590;-70
2023/08/31 06:43:57;;;;;;;;;;;;;;;24.40;43.20;100735.31;5047891;28;19991;-65
2023/08/31 06:46:22;;;;;;;;;;;;;;;24.39;43.38;100731.03;5057426;28;20628;-65
2023/08/31 06:48:48;;;;;;;;;;;;;;;24.44;43.29;100743.72;5006711;28;21540;-66
2023/08/31 06:51:14;;;;;;;;;;;;;;;24.43;43.44;100738.63;5069528;28;19940;-66
2023/08/31 06:53:40;;;;;;;;;;;;;;;24.44;43.39;100746.38;5008333;28;20279;-65
2023/08/31 06:56:06;;;;;;;;;;;;;;;24.48;43.30;100755.56;5060764;28;20468;-65
2023/08/31 06:58:37;;;;;;;;;;;;;;;24.34;43.38;100730.03;5040041;28;19940;-65
2023/08/31 07:01:07;;;;;;;;;;;;;;;24.48;43.14;100757.41;5066771;28;20013;-72
2023/08/31 07:03:34;;;;;;;;;;;;;;;24.49;43.23;100767.03;5025936;28;19951;-72
2023/08/31 07:06:03;;;;;;;;;;;;;;;24.49;43.35;100764.38;5039276;28;19951;-74
2023/08/31 07:08:30;;;;;;;;;;;;;;;24.16;43.43;100714.72;5043014;28;19955;-66
2023/08/31 07:10:59;;;;;;;;;;;;;;;24.51;43.36;100763.13;5040873;28;19943;-65
2023/08/31 07:13:25;;;;;;;;;;;;;;;24.53;43.38;100760.25;5044173;28;19934;-66
2023/08/31 07:15:51;;;;;;;;;;;;;;;24.55;43.36;100764.31;5027493;28;19949;-72
2023/08/31 07:18:17;;;;;;;;;;;;;;;24.56;43.29;100767.81;5057089;28;19976;-72
2023/08/31 07:20:45;;;;;;;;;;;;;;;24.55;43.34;100769.66;5009661;28;19955;-69
2023/08/31 07:23:10;;;;;;;;;;;;;;;24.56;43.34;100770.47;5056960;28;20026;-69
2023/08/31 07:25:35;;;;;;;;;;;;;;;24.58;43.25;100773.72;5002506;28;19957;-66
2023/08/31 07:28:01;;;;;;;;;;;;;;;24.60;43.38;100769.03;5062005;28;19983;-67
2023/08/31 07:30:26;;;;;;;;;;;;;;;24.59;43.46;100770.84;5000971;28;19959;-66
2023/08/31 07:32:51;;;;;;;;;;;;;;;24.60;43.54;100777.84;5059069;28;19994;-66
2023/08/31 07:35:17;;;;;;;;;;;;;;;24.63;43.34;100779.25;5035851;27;20390;-69
2023/08/31 07:37:42;;;;;;;;;;;;;;;24.50;43.25;100760.69;5060353;28;20049;-68
2023/08/31 07:40:09;;;;;;;;;;;;;;;24.65;43.32;100786.00;5009173;28;20005;-68
2023/08/31 07:42:35;;;;;;;;;;;;;;;24.67;43.26;100783.94;5055963;28;20057;-68
2023/08/31 07:45:00;;;;;;;;;;;;;;;24.68;43.41;100776.75;4997376;28;19958;-69
2023/08/31 07:47:26;;;;;;;;;;;;;;;24.68;43.43;100782.09;5058903;28;19940;-68
2023/08/31 07:49:52;;;;;;;;;;;;;;;24.72;43.37;100793.94;5011513;28;19948;-68
2023/08/31 07:52:17;;;;;;;;;;;;;;;24.76;43.33;100784.50;5049357;28;19987;-67
2023/08/31 07:54:42;;;;;;;;;;;;;;;24.72;43.57;100796.59;5064964;28;20051;-68
2023/08/31 07:57:08;;;;;;;;;;;;;;;24.73;43.28;100790.25;5007327;28;20241;-66
2023/08/31 07:59:33;;;;;;;;;;;;;;;24.73;43.25;100787.59;5056127;28;20027;-65
2023/08/31 08:01:59;;;;;;;;;;;;;;;24.73;43.23;100798.25;5009796;28;20866;-71
2023/08/31 08:04:25;;;;;;;;;;;;;;;24.74;43.47;100793.72;5061646;28;19937;-71
2023/08/31 08:06:55;;;;;;;;;;;;;;;24.58;43.22;100763.91;5038471;28;19942;-66
2023/08/31 08:09:25;;;;;;;;;;;;;;;24.78;43.29;100795.78;5057632;28;19942;-65
2023/08/31 08:11:51;;;;;;;;;;;;;;;24.81;43.44;100802.53;5029067;28;19940;-65
2023/08/31 08:14:19;;;;;;;;;;;;;;;24.81;43.12;100797.19;5040188;28;19946;-65
2023/08/31 08:16:50;;;;;;;;;;;;;;;24.64;43.16;100754.25;5055817;28;19959;-66
2023/08/31 08:19:23;;;;;;;;;;;;;;;24.82;43.16;100793.50;5042658;28;19940;-71
2023/08/31 08:21:48;;;;;;;;;;;;;;;24.82;43.23;100796.97;5027227;28;19941;-71
2023/08/31 08:24:15;;;;;;;;;;;;;;;24.84;43.29;100797.56;5031206;28;19934;-71
2023/08/31 08:26:40;;;;;;;;;;;;;;;24.84;43.19;100797.56;5060917;28;20476;-71
2023/08/31 08:29:05;;;;;;;;;;;;;;;24.87;43.40;100799.81;5006864;28;20272;-66
2023/08/31 08:31:32;;;;;;;;;;;;;;;24.89;43.20;100805.72;5056792;28;19979;-66
2023/08/31 08:33:57;;;;;;;;;;;;;;;24.89;43.06;100818.22;5006918;28;20590;-71
2023/08/31 08:36:23;;;;;;;;;;;;;;;24.90;43.05;100823.34;5059396;28;20017;-71
2023/08/31 08:38:48;;;;;;;;;;;;;;;24.92;42.94;100812.47;5005188;28;19950;-70
2023/08/31 08:41:18;;;;;;;;;;;;;;;24.92;43.21;100818.63;5061411;28;20407;-68
2023/08/31 08:43:46;;;;;;;;;;;;;;;24.90;43.15;100820.69;5008181;28;19945;-69
2023/08/31 08:46:12;;;;;;;;;;;;;;;24.90;43.27;100814.53;5059161;28;20370;-69
2023/08/31 08:48:37;;;;;;;;;;;;;;;24.93;43.07;100819.44;5003219;28;19947;-66
2023/08/31 08:51:03;;;;;;;;;;;;;;;24.92;43.32;100810.63;5057671;28;20402;-66
2023/08/31 08:53:29;;;;;;;;;;;;;;;24.95;43.15;100822.69;4987969;28;20529;-66
2023/08/31 08:55:54;;;;;;;;;;;;;;;24.94;43.20;100821.06;5056445;28;20519;-66
2023/08/31 08:58:22;;;;;;;;;;;;;;;24.96;42.98;100824.34;5031251;28;19945;-66
2023/08/31 09:00:54;;;;;;;;;;;;;;;24.96;42.94;100830.50;5034836;28;19951;-66
2023/08/31 09:03:20;;;;;;;;;;;;;;;24.96;43.12;100824.34;5038575;28;20521;-68
2023/08/31 09:05:51;;;;;;;;;;;;;;;24.98;43.08;100824.97;5021353;28;19952;-66
2023/08/31 09:08:25;;;;;;;;;;;;;;;24.98;42.97;100825.78;5057363;28;20074;-66
2023/08/31 09:10:51;;;;;;;;;;;;;;;24.97;43.18;100826.00;5011727;28;20413;-66
2023/08/31 09:13:19;;;;;;;;;;;;;;;24.97;43.05;100826.81;5053379;28;19940;-67
2023/08/31 09:15:47;;;;;;;;;;;;;;;24.98;43.04;100824.97;5028683;28;19946;-69
2023/08/31 09:18:25;;;;;;;;;;;;;;;24.98;43.17;100825.78;5063290;28;19980;-69
2023/08/31 09:20:53;;;;;;;;;;;;;;;25.00;42.93;100826.41;5030028;28;19948;-70
2023/08/31 09:23:28;;;;;;;;;;;;;;;24.95;42.65;100828.84;5048578;28;19935;-69
2023/08/31 09:25:55;;;;;;;;;;;;;;;24.98;42.92;100862.25;5050760;28;19940;-69
2023/08/31 09:28:22;;;;;;;;;;;;;;;24.95;42.96;100867.97;5053355;28;20266;-69
2023/08/31 09:30:52;;;;;;;;;;;;;;;24.95;43.09;100867.97;5028326;28;20347;-68
2023/08/31 09:33:23;;;;;;;;;;;;;;;24.76;43.32;100835.09;5041486;28;20341;-69
2023/08/31 09:35:57;;;;;;;;;;;;;;;24.92;43.26;100866.56;5050251;28;19934;-69
2023/08/31 09:38:25;;;;;;;;;;;;;;;24.93;43.25;100864.72;5002512;28;20582;-68
2023/08/31 09:40:51;;;;;;;;;;;;;;;24.94;43.24;100866.34;5057893;28;19982;-68
2023/08/31 09:43:21;;;;;;;;;;;;;;;24.75;43.15;100841.44;5040729;28;19942;-68
2023/08/31 09:45:48;;;;;;;;;;;;;;;24.96;43.12;100867.81;5033753;28;19950;-70
2023/08/31 09:48:19;;;;;;;;;;;;;;;24.93;42.97;100876.19;5032340;28;19939;-66
2023/08/31 09:50:51;;;;;;;;;;;;;;;24.97;43.12;100874.75;5058666;28;19939;-72
2023/08/31 09:53:29;;;;;;;;;;;;;;;24.79;42.95;100845.34;5050559;28;19996;-71
2023/08/31 09:55:56;;;;;;;;;;;;;;;24.94;43.28;100872.50;5049800;28;20047;-73
2023/08/31 09:58:21;;;;;;;;;;;;;;;24.97;43.13;100863.28;5041522;28;20048;-68
2023/08/31 10:00:48;;;;;;;;;;;;;;;24.93;43.04;100864.72;5056731;28;20578;-69
2023/08/31 10:03:15;;;;;;;;;;;;;;;24.93;43.24;100867.38;5000106;28;20477;-66
2023/08/31 10:05:42;;;;;;;;;;;;;;;24.92;43.31;100871.88;5059792;28;19966;-66
2023/08/31 10:08:08;;;;;;;;;;;;;;;24.95;43.14;100865.31;5008387;28;21916;-66
2023/08/31 10:10:35;;;;;;;;;;;;;;;24.94;43.09;100861.84;5056323;28;20397;-66
2023/08/31 10:13:01;;;;;;;;;;;;;;;24.93;43.13;100868.19;5000898;28;21928;-66
2023/08/31 10:15:31;;;;;;;;;;;;;;;24.93;43.26;100862.06;5056533;28;19942;-66
2023/08/31 10:17:58;;;;;;;;;;;;;;;24.77;42.97;100842.03;5024344;28;20024;-67
2023/08/31 10:20:34;;;;;;;;;;;;;;;24.95;42.98;100884.78;5053557;28;20028;-70
2023/08/31 10:23:09;;;;;;;;;;;;;;;24.88;43.14;100883.19;5013432;28;19939;-70
2023/08/31 10:25:50;;;;;;;;;;;;;;;24.95;43.29;100902.63;5057675;28;20004;-70
2023/08/31 10:28:19;;;;;;;;;;;;;;;24.93;43.17;100881.50;5001843;28;20466;-71
2023/08/31 10:30:59;;;;;;;;;;;;;;;24.92;43.24;100887.88;5061438;28;20035;-70
2023/08/31 10:33:25;;;;;;;;;;;;;;;24.93;43.06;100881.50;5004874;28;20116;-69
2023/08/31 10:35:52;;;;;;;;;;;;;;;24.91;43.13;100890.75;5061295;28;19942;-68
2023/08/31 10:38:31;;;;;;;;;;;;;;;24.93;43.29;100873.53;5005450;28;20462;-68
2023/08/31 10:40:59;;;;;;;;;;;;;;;24.93;43.21;100878.84;5060376;28;20422;-68
2023/08/31 10:43:25;;;;;;;;;;;;;;;24.90;43.11;100883.78;5009152;28;20339;-71
2023/08/31 10:45:50;;;;;;;;;;;;;;;24.91;43.02;100875.59;5062464;28;19957;-71
2023/08/31 10:48:17;;;;;;;;;;;;;;;24.91;43.03;100870.25;5007812;28;21127;-71
2023/08/31 10:50:44;;;;;;;;;;;;;;;24.96;43.28;100874.97;5063196;28;20027;-70
2023/08/31 10:53:11;;;;;;;;;;;;;;;24.94;43.10;100871.69;5013452;28;20634;-66
2023/08/31 10:55:52;;;;;;;;;;;;;;;24.93;43.39;100870.03;5057981;28;20599;-65
2023/08/31 10:58:18;;;;;;;;;;;;;;;24.91;43.24;100870.25;5009729;28;21903;-68
2023/08/31 11:01:01;;;;;;;;;;;;;;;24.95;43.29;100857.31;5062325;28;20624;-68
2023/08/31 11:03:29;;;;;;;;;;;;;;;24.90;43.31;100857.97;5007221;28;20044;-68
2023/08/31 11:05:54;;;;;;;;;;;;;;;24.90;43.06;100857.97;5063579;28;19962;-67
2023/08/31 11:08:23;;;;;;;;;;;;;;;24.93;43.43;100868.19;5049821;28;20466;-68
2023/08/31 11:10:49;;;;;;;;;;;;;;;24.91;43.22;100882.75;5060556;28;19932;-67
2023/08/31 11:13:22;;;;;;;;;;;;;;;24.90;43.31;100873.97;5015153;28;19951;-68
2023/08/31 11:15:48;;;;;;;;;;;;;;;24.91;43.19;100864.13;5064758;28;20606;-68
2023/08/31 11:18:17;;;;;;;;;;;;;;;24.94;43.06;100858.34;5007339;28;19960;-66
2023/08/31 11:20:43;;;;;;;;;;;;;;;24.94;43.35;100872.50;5064950;28;19968;-68
2023/08/31 11:23:09;;;;;;;;;;;;;;;24.94;43.31;100872.50;5008403;28;20720;-65
2023/08/31 11:25:34;;;;;;;;;;;;;;;24.90;43.54;100889.13;5062944;28;20025;-65
2023/08/31 11:28:01;;;;;;;;;;;;;;;24.89;43.45;100882.97;5006144;28;19947;-65
2023/08/31 11:30:27;;;;;;;;;;;;;;;24.90;43.34;100887.28;5062178;28;20036;-65
2023/08/31 11:32:53;;;;;;;;;;;;;;;24.91;43.15;100886.25;5003852;28;20010;-71
2023/08/31 11:35:19;;;;;;;;;;;;;;;24.95;43.14;100891.97;5058416;28;20384;-71
2023/08/31 11:37:45;;;;;;;;;;;;;;;24.91;43.31;100893.41;5004751;28;19973;-70
2023/08/31 11:40:11;;;;;;;;;;;;;;;24.93;43.32;100886.84;5057101;28;19997;-70
2023/08/31 11:42:37;;;;;;;;;;;;;;;24.93;43.42;100894.03;5008871;28;19966;-67
2023/08/31 11:45:05;;;;;;;;;;;;;;;24.92;43.37;100893.19;5058451;28;20014;-67
2023/08/31 11:47:31;;;;;;;;;;;;;;;24.92;43.33;100890.53;5001959;28;20700;-67
2023/08/31 11:49:57;;;;;;;;;;;;;;;24.93;43.14;100894.84;5059970;28;19939;-67
2023/08/31 11:52:23;;;;;;;;;;;;;;;24.94;43.20;100900.97;5007771;28;19961;-69
2023/08/31 11:54:51;;;;;;;;;;;;;;;24.94;43.38;100908.97;5062198;28;19995;-69
2023/08/31 11:57:17;;;;;;;;;;;;;;;24.95;43.37;100907.94;5006667;28;20091;-67
2023/08/31 11:59:42;;;;;;;;;;;;;;;24.93;43.21;100904.69;5054171;28;19947;-67
2023/08/31 12:02:08;;;;;;;;;;;;;;;24.95;43.38;100908.75;5005683;28;20504;-71
2023/08/31 12:04:41;;;;;;;;;;;;;;;24.95;43.10;100910.59;5060162;28;19938;-71
2023/08/31 12:07:07;;;;;;;;;;;;;;;24.97;43.33;100906.72;5002506;28;20063;-69
2023/08/31 12:09:36;;;;;;;;;;;;;;;24.78;43.00;100875.66;5063959;28;19940;-67
2023/08/31 12:12:04;;;;;;;;;;;;;;;24.96;43.07;100907.75;5049748;28;19939;-67
2023/08/31 12:14:30;;;;;;;;;;;;;;;24.96;43.11;100902.44;5057293;28;19945;-68
2023/08/31 12:17:05;;;;;;;;;;;;;;;25.00;43.25;100902.84;5002330;28;19965;-67
2023/08/31 12:19:32;;;;;;;;;;;;;;;24.96;43.24;100901.63;5058078;28;19939;-67
2023/08/31 12:21:58;;;;;;;;;;;;;;;24.95;43.19;100907.94;5000955;28;19945;-67
2023/08/31 12:24:24;;;;;;;;;;;;;;;24.94;43.34;100915.13;5053996;28;19941;-67
2023/08/31 12:26:50;;;;;;;;;;;;;;;24.97;43.13;100937.88;5003104;28;19942;-71
2023/08/31 12:29:15;;;;;;;;;;;;;;;24.94;43.20;100924.97;5066481;28;20219;-71
2023/08/31 12:31:41;;;;;;;;;;;;;;;24.92;43.21;100927.84;5004178;28;19955;-71
2023/08/31 12:34:06;;;;;;;;;;;;;;;24.93;43.42;100937.47;5060639;28;20009;-71
2023/08/31 12:36:32;;;;;;;;;;;;;;;24.74;43.39;100911.72;5003931;28;20061;-67